sensor_id;sensor_type;location;lat;lon;timestamp;temperature;humidity
26224;DHT22;14820;48.682;8.890;2023-08-01T00:01:32;17.10;99.90
26224;DHT22;14820;48.682;8.890;2023-08-01T00:03:58;17.10;99.90
26224;DHT22;14820;48.682;8.890;2023-08-01T00:06:24;17.10;99.90
26224;DHT22;14820;48.682;8.890;2023-08-01T00:08:51;17.10;99.90
26224;DHT22;14820;48.682;8.890;2023-08-01T00:11:17;17.10;99.90
26224;DHT22;14820;48.682;8.890;2023-08-01T00:13:42;17.10;99.90
26224;DHT22;14820;48.682;8.890;2023-08-01T00:16:09;17.10;99.90
26224;DHT22;14820;48.682;8.890;2023-08-01T00:18:35;17.10;99.90
26224;DHT22;14820;48.682;8.890;2023-08-01T00:21:01;17.10;99.90
26224;DHT22;14820;48.682;8.890;2023-08-01T00:23:27;17.10;99.90
26224;DHT22;14820;48.682;8.890;2023-08-01T00:25:53;17.00;99.90
26224;DHT22;14820;48.682;8.890;2023-08-01T00:28:18;17.00;99.90
26224;DHT22;14820;48.682;8.890;2023-08-01T00:30:44;17.10;99.90
26224;DHT22;14820;48.682;8.890;2023-08-01T00:33:10;17.00;99.90
26224;DHT22;14820;48.682;8.890;2023-08-01T00:35:36;17.00;99.90
26224;DHT22;14820;48.682;8.890;2023-08-01T00:38:01;17.00;99.90
26224;DHT22;14820;48.682;8.890;2023-08-01T00:40:31;17.10;99.90
26224;DHT22;14820;48.682;8.890;2023-08-01T00:42:57;17.10;99.90
26224;DHT22;14820;48.682;8.890;2023-08-01T00:45:23;17.10;99.90
26224;DHT22;14820;48.682;8.890;2023-08-01T00:47:52;17.10;99.90
26224;DHT22;14820;48.682;8.890;2023-08-01T00:50:18;17.10;99.90
26224;DHT22;14820;48.682;8.890;2023-08-01T00:52:48;17.10;99.90
26224;DHT22;14820;48.682;8.890;2023-08-01T00:55:15;17.10;99.90
26224;DHT22;14820;48.682;8.890;2023-08-01T00:57:41;17.10;99.90
26224;DHT22;14820;48.682;8.890;2023-08-01T01:00:08;17.10;99.90
26224;DHT22;14820;48.682;8.890;2023-08-01T01:02:59;17.10;99.90
26224;DHT22;14820;48.682;8.890;2023-08-01T01:05:25;17.10;99.90
26224;DHT22;14820;48.682;8.890;2023-08-01T01:07:52;17.00;99.90
26224;DHT22;14820;48.682;8.890;2023-08-01T01:10:19;16.90;99.90
26224;DHT22;14820;48.682;8.890;2023-08-01T01:12:44;17.00;99.90
26224;DHT22;14820;48.682;8.890;2023-08-01T01:15:10;17.00;99.90
26224;DHT22;14820;48.682;8.890;2023-08-01T01:17:36;17.00;99.90
26224;DHT22;14820;48.682;8.890;2023-08-01T01:20:01;16.90;99.90
26224;DHT22;14820;48.682;8.890;2023-08-01T01:22:28;16.90;99.90
26224;DHT22;14820;48.682;8.890;2023-08-01T01:24:55;16.90;99.90
26224;DHT22;14820;48.682;8.890;2023-08-01T01:27:21;16.80;99.90
26224;DHT22;14820;48.682;8.890;2023-08-01T01:29:48;16.80;99.90
26224;DHT22;14820;48.682;8.890;2023-08-01T01:32:15;16.80;99.90
26224;DHT22;14820;48.682;8.890;2023-08-01T01:34:41;16.80;99.90
26224;DHT22;14820;48.682;8.890;2023-08-01T01:37:07;16.80;99.90
26224;DHT22;14820;48.682;8.890;2023-08-01T01:39:32;16.80;99.90
26224;DHT22;14820;48.682;8.890;2023-08-01T01:41:58;16.70;99.90
26224;DHT22;14820;48.682;8.890;2023-08-01T01:44:23;16.80;99.90
26224;DHT22;14820;48.682;8.890;2023-08-01T01:46:49;16.80;99.90
26224;DHT22;14820;48.682;8.890;2023-08-01T01:49:15;16.80;99.90
26224;DHT22;14820;48.682;8.890;2023-08-01T01:51:40;16.80;99.90
26224;DHT22;14820;48.682;8.890;2023-08-01T01:54:06;16.80;99.90
26224;DHT22;14820;48.682;8.890;2023-08-01T01:56:32;16.70;99.90
26224;DHT22;14820;48.682;8.890;2023-08-01T01:58:58;16.70;99.90
26224;DHT22;14820;48.682;8.890;2023-08-01T02:01:23;16.70;99.90
26224;DHT22;14820;48.682;8.890;2023-08-01T02:03:49;16.80;99.90
26224;DHT22;14820;48.682;8.890;2023-08-01T02:06:14;16.80;99.90
26224;DHT22;14820;48.682;8.890;2023-08-01T02:08:40;16.80;99.90
26224;DHT22;14820;48.682;8.890;2023-08-01T02:11:06;16.80;99.90
26224;DHT22;14820;48.682;8.890;2023-08-01T02:13:32;16.80;99.90
26224;DHT22;14820;48.682;8.890;2023-08-01T02:15:59;16.90;99.90
26224;DHT22;14820;48.682;8.890;2023-08-01T02:18:25;16.90;99.90
26224;DHT22;14820;48.682;8.890;2023-08-01T02:20:50;16.90;99.90
26224;DHT22;14820;48.682;8.890;2023-08-01T02:23:16;16.90;99.90
26224;DHT22;14820;48.682;8.890;2023-08-01T02:25:42;16.90;99.90
26224;DHT22;14820;48.682;8.890;2023-08-01T02:28:08;16.90;99.90
26224;DHT22;14820;48.682;8.890;2023-08-01T02:30:36;16.90;99.90
26224;DHT22;14820;48.682;8.890;2023-08-01T02:33:02;16.90;99.90
26224;DHT22;14820;48.682;8.890;2023-08-01T02:35:28;16.90;99.90
26224;DHT22;14820;48.682;8.890;2023-08-01T02:37:55;16.90;99.90
26224;DHT22;14820;48.682;8.890;2023-08-01T02:40:20;17.00;99.90
26224;DHT22;14820;48.682;8.890;2023-08-01T02:42:46;17.00;99.90
26224;DHT22;14820;48.682;8.890;2023-08-01T02:45:12;17.00;99.90
26224;DHT22;14820;48.682;8.890;2023-08-01T02:47:38;17.00;99.90
26224;DHT22;14820;48.682;8.890;2023-08-01T02:50:04;17.00;99.90
26224;DHT22;14820;48.682;8.890;2023-08-01T02:52:30;17.00;99.90
26224;DHT22;14820;48.682;8.890;2023-08-01T02:54:55;16.90;99.90
26224;DHT22;14820;48.682;8.890;2023-08-01T02:57:21;16.90;99.90
26224;DHT22;14820;48.682;8.890;2023-08-01T02:59:47;16.90;99.90
26224;DHT22;14820;48.682;8.890;2023-08-01T03:02:12;16.90;99.90
26224;DHT22;14820;48.682;8.890;2023-08-01T03:04:38;16.90;99.90
26224;DHT22;14820;48.682;8.890;2023-08-01T03:07:04;17.00;99.90
26224;DHT22;14820;48.682;8.890;2023-08-01T03:09:29;17.00;99.90
26224;DHT22;14820;48.682;8.890;2023-08-01T03:11:55;17.10;99.90
26224;DHT22;14820;48.682;8.890;2023-08-01T03:14:20;17.00;99.90
26224;DHT22;14820;48.682;8.890;2023-08-01T03:16:46;17.00;99.90
26224;DHT22;14820;48.682;8.890;2023-08-01T03:19:12;17.00;99.90
26224;DHT22;14820;48.682;8.890;2023-08-01T03:21:38;17.10;99.90
26224;DHT22;14820;48.682;8.890;2023-08-01T03:24:04;17.10;99.90
26224;DHT22;14820;48.682;8.890;2023-08-01T03:26:34;17.20;99.90
26224;DHT22;14820;48.682;8.890;2023-08-01T03:29:00;17.20;99.90
26224;DHT22;14820;48.682;8.890;2023-08-01T03:31:25;17.20;99.90
26224;DHT22;14820;48.682;8.890;2023-08-01T03:33:51;17.20;99.90
26224;DHT22;14820;48.682;8.890;2023-08-01T03:36:17;17.20;99.90
26224;DHT22;14820;48.682;8.890;2023-08-01T03:38:43;17.20;99.90
26224;DHT22;14820;48.682;8.890;2023-08-01T03:41:08;17.10;99.90
26224;DHT22;14820;48.682;8.890;2023-08-01T03:43:34;17.20;99.90
26224;DHT22;14820;48.682;8.890;2023-08-01T03:46:00;17.20;99.90
26224;DHT22;14820;48.682;8.890;2023-08-01T03:48:26;17.20;99.90
26224;DHT22;14820;48.682;8.890;2023-08-01T03:50:51;17.20;99.90
26224;DHT22;14820;48.682;8.890;2023-08-01T03:53:17;17.10;99.90
26224;DHT22;14820;48.682;8.890;2023-08-01T03:55:44;17.10;99.90
26224;DHT22;14820;48.682;8.890;2023-08-01T03:58:10;17.10;99.90
26224;DHT22;14820;48.682;8.890;2023-08-01T04:00:36;17.10;99.90
26224;DHT22;14820;48.682;8.890;2023-08-01T04:03:01;17.10;99.90
26224;DHT22;14820;48.682;8.890;2023-08-01T04:05:28;17.10;99.90
26224;DHT22;14820;48.682;8.890;2023-08-01T04:07:54;17.10;99.90
26224;DHT22;14820;48.682;8.890;2023-08-01T04:10:23;17.10;99.90
26224;DHT22;14820;48.682;8.890;2023-08-01T04:12:49;17.10;99.90
26224;DHT22;14820;48.682;8.890;2023-08-01T04:15:15;17.00;99.90
26224;DHT22;14820;48.682;8.890;2023-08-01T04:17:43;17.10;99.90
26224;DHT22;14820;48.682;8.890;2023-08-01T04:20:09;17.10;99.90
26224;DHT22;14820;48.682;8.890;2023-08-01T04:22:34;17.10;99.90
26224;DHT22;14820;48.682;8.890;2023-08-01T04:25:01;17.10;99.90
26224;DHT22;14820;48.682;8.890;2023-08-01T04:27:27;17.10;99.90
26224;DHT22;14820;48.682;8.890;2023-08-01T04:29:54;17.00;99.90
26224;DHT22;14820;48.682;8.890;2023-08-01T04:32:20;17.10;99.90
26224;DHT22;14820;48.682;8.890;2023-08-01T04:34:45;17.10;99.90
26224;DHT22;14820;48.682;8.890;2023-08-01T04:37:11;17.10;99.90
26224;DHT22;14820;48.682;8.890;2023-08-01T04:39:37;17.10;99.90
26224;DHT22;14820;48.682;8.890;2023-08-01T04:42:03;17.10;99.90
26224;DHT22;14820;48.682;8.890;2023-08-01T04:44:28;17.10;99.90
26224;DHT22;14820;48.682;8.890;2023-08-01T04:46:55;17.00;99.90
26224;DHT22;14820;48.682;8.890;2023-08-01T04:49:20;17.00;99.90
26224;DHT22;14820;48.682;8.890;2023-08-01T04:51:47;17.00;99.90
26224;DHT22;14820;48.682;8.890;2023-08-01T04:54:13;17.00;99.90
26224;DHT22;14820;48.682;8.890;2023-08-01T04:56:39;17.00;99.90
26224;DHT22;14820;48.682;8.890;2023-08-01T04:59:04;17.00;99.90
26224;DHT22;14820;48.682;8.890;2023-08-01T05:01:31;17.00;99.90
26224;DHT22;14820;48.682;8.890;2023-08-01T05:03:56;17.00;99.90
26224;DHT22;14820;48.682;8.890;2023-08-01T05:06:22;17.00;99.90
26224;DHT22;14820;48.682;8.890;2023-08-01T05:08:48;17.00;99.90
26224;DHT22;14820;48.682;8.890;2023-08-01T05:11:13;17.00;99.90
26224;DHT22;14820;48.682;8.890;2023-08-01T05:13:39;17.00;99.90
26224;DHT22;14820;48.682;8.890;2023-08-01T05:16:05;17.00;99.90
26224;DHT22;14820;48.682;8.890;2023-08-01T05:18:30;17.00;99.90
26224;DHT22;14820;48.682;8.890;2023-08-01T05:20:56;17.10;99.90
26224;DHT22;14820;48.682;8.890;2023-08-01T05:23:22;17.10;99.90
26224;DHT22;14820;48.682;8.890;2023-08-01T05:25:47;17.10;99.90
26224;DHT22;14820;48.682;8.890;2023-08-01T05:28:13;17.10;99.90
26224;DHT22;14820;48.682;8.890;2023-08-01T05:30:39;17.10;99.90
26224;DHT22;14820;48.682;8.890;2023-08-01T05:33:05;17.10;99.90
26224;DHT22;14820;48.682;8.890;2023-08-01T05:35:31;17.10;99.90
26224;DHT22;14820;48.682;8.890;2023-08-01T05:37:56;17.10;99.90
26224;DHT22;14820;48.682;8.890;2023-08-01T05:40:22;17.10;99.90
26224;DHT22;14820;48.682;8.890;2023-08-01T05:42:47;17.10;99.90
26224;DHT22;14820;48.682;8.890;2023-08-01T05:45:13;17.10;99.90
26224;DHT22;14820;48.682;8.890;2023-08-01T05:47:39;17.10;99.90
26224;DHT22;14820;48.682;8.890;2023-08-01T05:50:06;17.10;99.90
26224;DHT22;14820;48.682;8.890;2023-08-01T05:52:33;17.10;99.90
26224;DHT22;14820;48.682;8.890;2023-08-01T05:54:59;17.10;99.90
26224;DHT22;14820;48.682;8.890;2023-08-01T05:57:24;17.10;99.90
26224;DHT22;14820;48.682;8.890;2023-08-01T05:59:50;17.10;99.90
26224;DHT22;14820;48.682;8.890;2023-08-01T06:02:16;17.20;99.90
26224;DHT22;14820;48.682;8.890;2023-08-01T06:04:42;17.20;99.90
26224;DHT22;14820;48.682;8.890;2023-08-01T06:07:07;17.20;99.90
26224;DHT22;14820;48.682;8.890;2023-08-01T06:09:33;17.20;99.90
26224;DHT22;14820;48.682;8.890;2023-08-01T06:11:58;17.20;99.90
26224;DHT22;14820;48.682;8.890;2023-08-01T06:14:24;17.20;99.90
26224;DHT22;14820;48.682;8.890;2023-08-01T06:16:50;17.20;99.90
26224;DHT22;14820;48.682;8.890;2023-08-01T06:19:15;17.20;99.90
26224;DHT22;14820;48.682;8.890;2023-08-01T06:21:41;17.10;99.90
26224;DHT22;14820;48.682;8.890;2023-08-01T06:24:07;17.10;99.90
26224;DHT22;14820;48.682;8.890;2023-08-01T06:26:34;17.20;99.90
26224;DHT22;14820;48.682;8.890;2023-08-01T06:28:59;17.10;99.90
26224;DHT22;14820;48.682;8.890;2023-08-01T06:31:25;17.10;99.90
26224;DHT22;14820;48.682;8.890;2023-08-01T06:33:51;17.10;99.90
26224;DHT22;14820;48.682;8.890;2023-08-01T06:36:17;17.00;99.90
26224;DHT22;14820;48.682;8.890;2023-08-01T06:38:43;17.10;99.90
26224;DHT22;14820;48.682;8.890;2023-08-01T06:41:09;17.00;99.90
26224;DHT22;14820;48.682;8.890;2023-08-01T06:43:35;17.00;99.90
26224;DHT22;14820;48.682;8.890;2023-08-01T06:46:05;17.00;99.90
26224;DHT22;14820;48.682;8.890;2023-08-01T06:48:31;17.00;99.90
26224;DHT22;14820;48.682;8.890;2023-08-01T06:51:00;17.00;99.90
26224;DHT22;14820;48.682;8.890;2023-08-01T06:53:26;17.00;99.90
26224;DHT22;14820;48.682;8.890;2023-08-01T06:55:52;17.10;99.90
26224;DHT22;14820;48.682;8.890;2023-08-01T06:58:17;17.10;99.90
26224;DHT22;14820;48.682;8.890;2023-08-01T07:00:44;17.00;99.90
26224;DHT22;14820;48.682;8.890;2023-08-01T07:03:09;17.10;99.90
26224;DHT22;14820;48.682;8.890;2023-08-01T07:05:35;17.10;99.90
26224;DHT22;14820;48.682;8.890;2023-08-01T07:08:01;17.10;99.90
26224;DHT22;14820;48.682;8.890;2023-08-01T07:10:26;17.00;99.90
26224;DHT22;14820;48.682;8.890;2023-08-01T07:12:52;16.90;99.90
26224;DHT22;14820;48.682;8.890;2023-08-01T07:15:18;16.80;99.90
26224;DHT22;14820;48.682;8.890;2023-08-01T07:17:43;16.80;99.90
26224;DHT22;14820;48.682;8.890;2023-08-01T07:20:09;16.70;99.90
26224;DHT22;14820;48.682;8.890;2023-08-01T07:22:35;16.60;99.90
26224;DHT22;14820;48.682;8.890;2023-08-01T07:25:00;16.60;99.90
26224;DHT22;14820;48.682;8.890;2023-08-01T07:27:26;16.60;99.90
26224;DHT22;14820;48.682;8.890;2023-08-01T07:29:52;16.60;99.90
26224;DHT22;14820;48.682;8.890;2023-08-01T07:32:17;16.60;99.90
26224;DHT22;14820;48.682;8.890;2023-08-01T07:34:43;16.60;99.90
26224;DHT22;14820;48.682;8.890;2023-08-01T07:37:09;16.60;99.90
26224;DHT22;14820;48.682;8.890;2023-08-01T07:39:34;16.50;99.90
26224;DHT22;14820;48.682;8.890;2023-08-01T07:42:00;16.40;99.90
26224;DHT22;14820;48.682;8.890;2023-08-01T07:44:26;16.40;99.90
26224;DHT22;14820;48.682;8.890;2023-08-01T07:46:51;16.30;99.90
26224;DHT22;14820;48.682;8.890;2023-08-01T07:49:17;16.20;99.90
26224;DHT22;14820;48.682;8.890;2023-08-01T07:51:43;16.30;99.90
26224;DHT22;14820;48.682;8.890;2023-08-01T07:54:09;16.30;99.90
26224;DHT22;14820;48.682;8.890;2023-08-01T07:56:35;16.20;99.90
26224;DHT22;14820;48.682;8.890;2023-08-01T07:59:01;16.10;99.90
26224;DHT22;14820;48.682;8.890;2023-08-01T08:01:26;16.10;99.90
26224;DHT22;14820;48.682;8.890;2023-08-01T08:03:52;16.10;99.90
26224;DHT22;14820;48.682;8.890;2023-08-01T08:06:18;16.10;99.90
26224;DHT22;14820;48.682;8.890;2023-08-01T08:08:46;16.20;99.90
26224;DHT22;14820;48.682;8.890;2023-08-01T08:11:12;16.10;99.90
26224;DHT22;14820;48.682;8.890;2023-08-01T08:13:37;16.10;99.90
26224;DHT22;14820;48.682;8.890;2023-08-01T08:16:03;16.10;99.90
26224;DHT22;14820;48.682;8.890;2023-08-01T08:18:30;16.10;99.90
26224;DHT22;14820;48.682;8.890;2023-08-01T08:20:55;16.10;99.90
26224;DHT22;14820;48.682;8.890;2023-08-01T08:23:21;16.10;99.90
26224;DHT22;14820;48.682;8.890;2023-08-01T08:25:47;16.10;99.90
26224;DHT22;14820;48.682;8.890;2023-08-01T08:28:13;16.10;99.90
26224;DHT22;14820;48.682;8.890;2023-08-01T08:30:39;16.10;99.90
26224;DHT22;14820;48.682;8.890;2023-08-01T08:33:05;16.20;99.90
26224;DHT22;14820;48.682;8.890;2023-08-01T08:35:32;16.20;99.90
26224;DHT22;14820;48.682;8.890;2023-08-01T08:38:02;16.30;99.90
26224;DHT22;14820;48.682;8.890;2023-08-01T08:40:27;16.30;99.90
26224;DHT22;14820;48.682;8.890;2023-08-01T08:42:53;16.30;99.90
26224;DHT22;14820;48.682;8.890;2023-08-01T08:45:20;16.30;99.90
26224;DHT22;14820;48.682;8.890;2023-08-01T08:47:55;16.30;99.90
26224;DHT22;14820;48.682;8.890;2023-08-01T08:50:21;16.40;99.90
26224;DHT22;14820;48.682;8.890;2023-08-01T08:52:46;16.40;99.90
26224;DHT22;14820;48.682;8.890;2023-08-01T08:55:12;16.40;99.90
26224;DHT22;14820;48.682;8.890;2023-08-01T08:57:39;16.40;99.90
26224;DHT22;14820;48.682;8.890;2023-08-01T09:00:06;16.40;99.90
26224;DHT22;14820;48.682;8.890;2023-08-01T09:02:32;16.40;99.90
26224;DHT22;14820;48.682;8.890;2023-08-01T09:04:59;16.50;99.90
26224;DHT22;14820;48.682;8.890;2023-08-01T09:07:27;16.40;99.90
26224;DHT22;14820;48.682;8.890;2023-08-01T09:09:54;16.40;99.90
26224;DHT22;14820;48.682;8.890;2023-08-01T09:12:21;16.40;99.90
26224;DHT22;14820;48.682;8.890;2023-08-01T09:14:49;16.40;99.90
26224;DHT22;14820;48.682;8.890;2023-08-01T09:17:15;16.40;99.90
26224;DHT22;14820;48.682;8.890;2023-08-01T09:19:43;16.50;99.90
26224;DHT22;14820;48.682;8.890;2023-08-01T09:22:14;16.60;99.90
26224;DHT22;14820;48.682;8.890;2023-08-01T09:24:51;16.50;99.90
26224;DHT22;14820;48.682;8.890;2023-08-01T09:27:16;16.50;99.90
26224;DHT22;14820;48.682;8.890;2023-08-01T09:29:42;16.40;99.90
26224;DHT22;14820;48.682;8.890;2023-08-01T09:32:14;16.40;99.90
26224;DHT22;14820;48.682;8.890;2023-08-01T09:34:41;16.50;99.90
26224;DHT22;14820;48.682;8.890;2023-08-01T09:37:07;16.50;99.90
26224;DHT22;14820;48.682;8.890;2023-08-01T09:39:33;16.50;99.90
26224;DHT22;14820;48.682;8.890;2023-08-01T09:42:00;16.60;99.90
26224;DHT22;14820;48.682;8.890;2023-08-01T09:44:27;16.70;99.90
26224;DHT22;14820;48.682;8.890;2023-08-01T09:47:00;16.70;99.90
26224;DHT22;14820;48.682;8.890;2023-08-01T09:49:27;16.80;99.90
26224;DHT22;14820;48.682;8.890;2023-08-01T09:51:53;16.80;99.90
26224;DHT22;14820;48.682;8.890;2023-08-01T09:54:21;16.90;99.90
26224;DHT22;14820;48.682;8.890;2023-08-01T09:56:48;16.90;99.90
26224;DHT22;14820;48.682;8.890;2023-08-01T09:59:22;16.90;99.90
26224;DHT22;14820;48.682;8.890;2023-08-01T10:01:50;16.80;99.90
26224;DHT22;14820;48.682;8.890;2023-08-01T10:04:28;16.90;99.90
26224;DHT22;14820;48.682;8.890;2023-08-01T10:06:58;16.90;99.90
26224;DHT22;14820;48.682;8.890;2023-08-01T10:09:27;16.90;99.90
26224;DHT22;14820;48.682;8.890;2023-08-01T10:11:57;17.10;99.90
26224;DHT22;14820;48.682;8.890;2023-08-01T10:14:25;17.10;99.90
26224;DHT22;14820;48.682;8.890;2023-08-01T10:16:51;17.10;99.90
26224;DHT22;14820;48.682;8.890;2023-08-01T10:19:17;17.10;99.90
26224;DHT22;14820;48.682;8.890;2023-08-01T10:21:45;17.10;99.90
26224;DHT22;14820;48.682;8.890;2023-08-01T10:24:13;17.10;99.90
26224;DHT22;14820;48.682;8.890;2023-08-01T10:26:39;17.20;99.90
26224;DHT22;14820;48.682;8.890;2023-08-01T10:29:04;17.30;99.90
26224;DHT22;14820;48.682;8.890;2023-08-01T10:31:30;17.40;99.90
26224;DHT22;14820;48.682;8.890;2023-08-01T10:44:44;18.30;99.90
26224;DHT22;14820;48.682;8.890;2023-08-01T10:47:10;18.30;99.90
26224;DHT22;14820;48.682;8.890;2023-08-01T10:49:40;18.20;99.90
26224;DHT22;14820;48.682;8.890;2023-08-01T10:52:17;18.10;99.90
26224;DHT22;14820;48.682;8.890;2023-08-01T10:54:46;18.00;99.90
26224;DHT22;14820;48.682;8.890;2023-08-01T10:57:18;18.00;99.90
26224;DHT22;14820;48.682;8.890;2023-08-01T10:59:44;18.10;99.90
26224;DHT22;14820;48.682;8.890;2023-08-01T11:02:10;18.10;99.90
26224;DHT22;14820;48.682;8.890;2023-08-01T11:04:35;18.00;99.90
26224;DHT22;14820;48.682;8.890;2023-08-01T11:07:01;18.20;99.90
26224;DHT22;14820;48.682;8.890;2023-08-01T11:09:27;18.20;99.90
26224;DHT22;14820;48.682;8.890;2023-08-01T11:11:55;18.30;99.90
26224;DHT22;14820;48.682;8.890;2023-08-01T11:14:22;18.40;99.90
26224;DHT22;14820;48.682;8.890;2023-08-01T11:16:49;18.40;99.90
26224;DHT22;14820;48.682;8.890;2023-08-01T11:19:32;18.40;99.90
26224;DHT22;14820;48.682;8.890;2023-08-01T11:21:59;18.50;99.90
26224;DHT22;14820;48.682;8.890;2023-08-01T11:24:33;18.60;99.90
26224;DHT22;14820;48.682;8.890;2023-08-01T11:26:59;18.60;99.90
26224;DHT22;14820;48.682;8.890;2023-08-01T11:29:24;18.70;99.90
26224;DHT22;14820;48.682;8.890;2023-08-01T11:31:57;18.70;99.90
26224;DHT22;14820;48.682;8.890;2023-08-01T11:34:23;18.80;99.90
26224;DHT22;14820;48.682;8.890;2023-08-01T11:36:50;18.80;99.90
26224;DHT22;14820;48.682;8.890;2023-08-01T11:39:16;18.70;99.90
26224;DHT22;14820;48.682;8.890;2023-08-01T11:41:43;18.80;99.90
26224;DHT22;14820;48.682;8.890;2023-08-01T11:44:09;18.80;99.90
26224;DHT22;14820;48.682;8.890;2023-08-01T11:46:37;18.90;99.90
26224;DHT22;14820;48.682;8.890;2023-08-01T11:49:04;19.00;99.90
26224;DHT22;14820;48.682;8.890;2023-08-01T11:51:39;19.20;99.90
26224;DHT22;14820;48.682;8.890;2023-08-01T11:54:04;19.20;99.90
26224;DHT22;14820;48.682;8.890;2023-08-01T11:56:31;19.20;99.90
26224;DHT22;14820;48.682;8.890;2023-08-01T11:58:57;19.40;99.90
26224;DHT22;14820;48.682;8.890;2023-08-01T12:01:24;19.40;99.90
26224;DHT22;14820;48.682;8.890;2023-08-01T12:03:52;19.50;99.90
26224;DHT22;14820;48.682;8.890;2023-08-01T12:06:20;19.60;99.90
26224;DHT22;14820;48.682;8.890;2023-08-01T12:08:48;19.60;99.90
26224;DHT22;14820;48.682;8.890;2023-08-01T12:11:27;19.70;99.90
26224;DHT22;14820;48.682;8.890;2023-08-01T12:14:08;20.00;99.90
26224;DHT22;14820;48.682;8.890;2023-08-01T12:16:42;19.90;99.90
26224;DHT22;14820;48.682;8.890;2023-08-01T12:19:10;20.00;99.90
26224;DHT22;14820;48.682;8.890;2023-08-01T12:21:36;20.10;99.90
26224;DHT22;14820;48.682;8.890;2023-08-01T12:26:28;20.30;99.90
26224;DHT22;14820;48.682;8.890;2023-08-01T12:28:54;20.30;99.90
26224;DHT22;14820;48.682;8.890;2023-08-01T12:31:21;20.20;99.90
26224;DHT22;14820;48.682;8.890;2023-08-01T12:33:47;20.10;99.90
26224;DHT22;14820;48.682;8.890;2023-08-01T12:36:14;20.00;99.90
26224;DHT22;14820;48.682;8.890;2023-08-01T12:38:40;20.10;99.90
26224;DHT22;14820;48.682;8.890;2023-08-01T12:41:06;20.20;99.90
26224;DHT22;14820;48.682;8.890;2023-08-01T12:43:32;20.30;99.90
26224;DHT22;14820;48.682;8.890;2023-08-01T12:45:57;20.30;99.90
26224;DHT22;14820;48.682;8.890;2023-08-01T12:48:24;20.30;99.90
26224;DHT22;14820;48.682;8.890;2023-08-01T12:50:50;20.40;99.90
26224;DHT22;14820;48.682;8.890;2023-08-01T12:53:16;20.50;99.90
26224;DHT22;14820;48.682;8.890;2023-08-01T12:55:46;20.60;99.90
26224;DHT22;14820;48.682;8.890;2023-08-01T12:58:12;20.50;99.90
26224;DHT22;14820;48.682;8.890;2023-08-01T13:00:39;20.60;99.90
26224;DHT22;14820;48.682;8.890;2023-08-01T13:03:05;20.70;99.90
26224;DHT22;14820;48.682;8.890;2023-08-01T13:05:34;20.70;99.90
26224;DHT22;14820;48.682;8.890;2023-08-01T13:07:59;20.80;99.90
26224;DHT22;14820;48.682;8.890;2023-08-01T13:10:25;20.80;99.90
26224;DHT22;14820;48.682;8.890;2023-08-01T13:12:51;20.80;99.90
26224;DHT22;14820;48.682;8.890;2023-08-01T13:15:16;20.80;99.90
26224;DHT22;14820;48.682;8.890;2023-08-01T13:17:42;20.70;99.90
26224;DHT22;14820;48.682;8.890;2023-08-01T13:20:08;20.80;99.90
26224;DHT22;14820;48.682;8.890;2023-08-01T13:22:33;20.80;99.90
26224;DHT22;14820;48.682;8.890;2023-08-01T13:24:59;20.80;99.90
26224;DHT22;14820;48.682;8.890;2023-08-01T13:27:25;20.80;99.90
26224;DHT22;14820;48.682;8.890;2023-08-01T13:29:50;20.90;99.90
26224;DHT22;14820;48.682;8.890;2023-08-01T13:32:19;20.90;99.90
26224;DHT22;14820;48.682;8.890;2023-08-01T13:34:45;20.80;99.90
26224;DHT22;14820;48.682;8.890;2023-08-01T13:37:11;20.80;99.90
26224;DHT22;14820;48.682;8.890;2023-08-01T13:39:37;20.80;99.90
26224;DHT22;14820;48.682;8.890;2023-08-01T13:42:03;20.80;99.90
26224;DHT22;14820;48.682;8.890;2023-08-01T13:44:29;20.90;99.90
26224;DHT22;14820;48.682;8.890;2023-08-01T13:46:55;21.00;99.90
26224;DHT22;14820;48.682;8.890;2023-08-01T13:49:20;21.00;99.90
26224;DHT22;14820;48.682;8.890;2023-08-01T13:51:46;20.90;99.90
26224;DHT22;14820;48.682;8.890;2023-08-01T13:54:12;20.90;99.90
26224;DHT22;14820;48.682;8.890;2023-08-01T13:56:38;20.90;99.90
26224;DHT22;14820;48.682;8.890;2023-08-01T13:59:03;20.90;99.90
26224;DHT22;14820;48.682;8.890;2023-08-01T14:01:29;20.90;99.90
26224;DHT22;14820;48.682;8.890;2023-08-01T14:03:55;20.90;99.90
26224;DHT22;14820;48.682;8.890;2023-08-01T14:06:20;21.00;99.90
26224;DHT22;14820;48.682;8.890;2023-08-01T14:08:46;21.00;99.90
26224;DHT22;14820;48.682;8.890;2023-08-01T14:11:12;20.90;99.90
26224;DHT22;14820;48.682;8.890;2023-08-01T14:13:37;20.90;99.90
26224;DHT22;14820;48.682;8.890;2023-08-01T14:16:03;21.00;99.90
26224;DHT22;14820;48.682;8.890;2023-08-01T14:18:29;21.00;99.90
26224;DHT22;14820;48.682;8.890;2023-08-01T14:20:55;21.10;99.90
26224;DHT22;14820;48.682;8.890;2023-08-01T14:23:21;21.20;99.90
26224;DHT22;14820;48.682;8.890;2023-08-01T14:25:47;21.30;99.90
26224;DHT22;14820;48.682;8.890;2023-08-01T14:28:13;21.40;99.90
26224;DHT22;14820;48.682;8.890;2023-08-01T14:30:39;21.30;99.90
26224;DHT22;14820;48.682;8.890;2023-08-01T14:33:07;21.40;99.90
26224;DHT22;14820;48.682;8.890;2023-08-01T14:35:34;21.40;99.90
26224;DHT22;14820;48.682;8.890;2023-08-01T14:38:00;21.40;99.90
26224;DHT22;14820;48.682;8.890;2023-08-01T14:40:26;21.40;99.90
26224;DHT22;14820;48.682;8.890;2023-08-01T14:42:52;21.40;99.90
26224;DHT22;14820;48.682;8.890;2023-08-01T14:45:18;21.40;99.90
26224;DHT22;14820;48.682;8.890;2023-08-01T14:47:44;21.40;99.90
26224;DHT22;14820;48.682;8.890;2023-08-01T14:50:11;21.50;99.90
26224;DHT22;14820;48.682;8.890;2023-08-01T14:52:37;21.50;99.90
26224;DHT22;14820;48.682;8.890;2023-08-01T14:55:03;21.60;99.90
26224;DHT22;14820;48.682;8.890;2023-08-01T14:57:30;21.70;99.90
26224;DHT22;14820;48.682;8.890;2023-08-01T14:59:55;21.70;99.90
26224;DHT22;14820;48.682;8.890;2023-08-01T15:02:22;21.60;99.90
26224;DHT22;14820;48.682;8.890;2023-08-01T15:04:54;21.60;99.90
26224;DHT22;14820;48.682;8.890;2023-08-01T15:07:24;21.60;99.90
26224;DHT22;14820;48.682;8.890;2023-08-01T15:09:51;21.50;99.90
26224;DHT22;14820;48.682;8.890;2023-08-01T15:12:20;21.50;99.90
26224;DHT22;14820;48.682;8.890;2023-08-01T15:14:53;21.40;99.90
26224;DHT22;14820;48.682;8.890;2023-08-01T15:17:19;21.40;99.90
26224;DHT22;14820;48.682;8.890;2023-08-01T15:19:45;21.30;99.90
26224;DHT22;14820;48.682;8.890;2023-08-01T15:22:16;21.30;99.90
26224;DHT22;14820;48.682;8.890;2023-08-01T15:24:42;21.40;99.90
26224;DHT22;14820;48.682;8.890;2023-08-01T15:27:08;21.40;99.90
26224;DHT22;14820;48.682;8.890;2023-08-01T15:29:34;21.30;99.90
26224;DHT22;14820;48.682;8.890;2023-08-01T15:32:00;21.30;99.90
26224;DHT22;14820;48.682;8.890;2023-08-01T15:34:25;21.30;99.90
26224;DHT22;14820;48.682;8.890;2023-08-01T15:36:51;21.30;99.90
26224;DHT22;14820;48.682;8.890;2023-08-01T15:39:17;21.20;99.90